VPS weather

Destin-Ft Walton Beach Airport
Valparaiso, Florida, United States

Public forecast

Using degrees Fahrenheit for public forecast. Weather courtesy of forecast.io.

METAR (pilot weather report)

Retrieved 2019/06/16 14:56 UTC (58 minutes ago):

KVPS 161456Z AUTO 17006KT 10SM FEW028 30/22 A3006 RMK AO2 SLP185 T02960223 50014 $

TAF (pilot weather forecast)

Forecast is more than 6 hours old.

Retrieved 2019/06/16 09:14 UTC (7 hours ago):

TAF KVPS 160900Z 1609/1715 02004KT 9999 FEW020 FEW250 QNH2998INS WND 13008KT AFT 1613 BECMG 1616/1617 19012KT 9999 SCT040 SCT250 QNH2994INS BECMG 1700/1701 18007KT 9999 FEW020 FEW250 QNH2996INS TX31/1619Z TN22/1611Z